createdAt,value
2019-02-04T00:00:03.831Z,1017.13
2019-02-04T00:02:45.992Z,1017.08
2019-02-04T00:06:09.433Z,1017.02
2019-02-04T00:07:01.206Z,1017.03
2019-02-04T00:07:56.042Z,1017.04
2019-02-04T00:08:47.213Z,1017.03
2019-02-04T00:11:00.044Z,1017.07
2019-02-04T00:11:48.856Z,1017.06
2019-02-04T00:12:43.274Z,1017.1
2019-02-04T00:14:37.563Z,1017.09
2019-02-04T00:15:27.666Z,1017.09
2019-02-04T00:20:57.101Z,1017.13
2019-02-04T00:21:47.714Z,1017.1
2019-02-04T00:22:38.974Z,1017.14
2019-02-04T00:23:29.172Z,1017.14
2019-02-04T00:24:19.485Z,1017.17
2019-02-04T00:25:09.816Z,1017.16
2019-02-04T00:25:58.704Z,1017.12
2019-02-04T00:26:51.232Z,1017.14
2019-02-04T00:27:24.478Z,1017.15
2019-02-04T00:28:04.878Z,1017.21
2019-02-04T00:28:45.253Z,1017.21
2019-02-04T00:29:25.666Z,1017.21
2019-02-04T00:30:06.052Z,1017.22
2019-02-04T00:30:46.418Z,1017.25
2019-02-04T00:31:26.855Z,1017.22
2019-02-04T00:32:07.251Z,1017.2
2019-02-04T00:32:47.594Z,1017.23
2019-02-04T00:33:28.001Z,1017.29
2019-02-04T00:34:08.403Z,1017.22
2019-02-04T00:34:48.811Z,1017.26
2019-02-04T00:35:29.215Z,1017.27
2019-02-04T00:36:09.629Z,1017.3
2019-02-04T00:36:50.040Z,1017.31
2019-02-04T00:37:30.441Z,1017.32
2019-02-04T00:38:10.855Z,1017.37
2019-02-04T00:38:51.267Z,1017.35
2019-02-04T00:39:31.688Z,1017.35
2019-02-04T00:40:12.091Z,1017.4
2019-02-04T00:40:52.478Z,1017.39
2019-02-04T00:41:32.890Z,1017.39
2019-02-04T00:42:13.269Z,1017.38
2019-02-04T00:42:53.619Z,1017.39
2019-02-04T00:43:34.011Z,1017.43
2019-02-04T00:44:14.403Z,1017.44
2019-02-04T00:44:54.755Z,1017.43
2019-02-04T00:45:35.183Z,1017.44
2019-02-04T00:46:15.569Z,1017.43
2019-02-04T00:46:55.980Z,1017.44
2019-02-04T00:47:36.366Z,1017.45
2019-02-04T00:48:16.779Z,1017.46
2019-02-04T00:48:57.137Z,1017.47
2019-02-04T00:49:37.550Z,1017.45
2019-02-04T00:50:17.964Z,1017.49
2019-02-04T00:52:54.674Z,1017.45
2019-02-04T00:53:45.234Z,1017.45
2019-02-04T00:54:34.164Z,1017.45
2019-02-04T00:57:04.364Z,1017.45
2019-02-04T00:57:53.293Z,1017.46
2019-02-04T00:58:44.397Z,1017.49
2019-02-04T00:59:34.349Z,1017.5
2019-02-04T01:00:27.006Z,1017.43
2019-02-04T01:01:17.837Z,1017.46
2019-02-04T01:02:10.843Z,1017.48
2019-02-04T01:03:01.562Z,1017.45
2019-02-04T01:06:12.615Z,1017.44
2019-02-04T01:07:01.642Z,1017.45
2019-02-04T01:07:50.509Z,1017.45
2019-02-04T01:08:40.336Z,1017.47
2019-02-04T01:09:29.286Z,1017.48
2019-02-04T01:10:18.427Z,1017.48
2019-02-04T01:11:08.010Z,1017.47
2019-02-04T01:11:57.969Z,1017.46
2019-02-04T01:12:46.253Z,1017.46
2019-02-04T01:13:35.837Z,1017.45
2019-02-04T01:20:59.531Z,1017.54
2019-02-04T01:23:10.516Z,1017.58
2019-02-04T01:24:03.983Z,1017.57
2019-02-04T01:24:52.320Z,1017.57
2019-02-04T01:25:46.451Z,1017.56
2019-02-04T01:26:40.033Z,1017.57
2019-02-04T01:27:25.993Z,1017.56
2019-02-04T01:30:13.594Z,1017.57
2019-02-04T01:31:05.660Z,1017.57
2019-02-04T01:31:58.336Z,1017.64
2019-02-04T01:32:48.124Z,1017.63
2019-02-04T01:33:40.122Z,1017.65
2019-02-04T01:34:29.723Z,1017.68
2019-02-04T01:35:20.819Z,1017.69
2019-02-04T01:37:26.187Z,1017.65
2019-02-04T01:43:47.205Z,1017.55
2019-02-04T01:46:17.262Z,1017.52
2019-02-04T01:51:12.639Z,1017.59
2019-02-04T01:52:03.002Z,1017.62
2019-02-04T01:52:53.489Z,1017.62
2019-02-04T01:53:42.415Z,1017.58
2019-02-04T01:54:31.602Z,1017.63
2019-02-04T01:55:20.428Z,1017.66
2019-02-04T01:56:10.232Z,1017.71
2019-02-04T01:56:59.270Z,1017.69
2019-02-04T01:57:48.177Z,1017.71
2019-02-04T01:58:37.858Z,1017.75
2019-02-04T01:59:25.548Z,1017.72
2019-02-04T02:00:14.544Z,1017.69
2019-02-04T02:01:03.756Z,1017.71
2019-02-04T02:01:52.649Z,1017.69
2019-02-04T02:02:41.582Z,1017.7
2019-02-04T02:03:30.582Z,1017.69
2019-02-04T02:04:20.655Z,1017.73
2019-02-04T02:05:09.703Z,1017.71
2019-02-04T02:05:58.998Z,1017.71
2019-02-04T02:06:47.649Z,1017.68
2019-02-04T02:07:37.371Z,1017.7
2019-02-04T02:08:26.044Z,1017.75
2019-02-04T02:09:14.607Z,1017.77
2019-02-04T02:10:03.442Z,1017.75
2019-02-04T02:10:53.039Z,1017.7
2019-02-04T02:11:42.767Z,1017.78
2019-02-04T02:12:33.798Z,1017.69
2019-02-04T02:13:22.124Z,1017.71
2019-02-04T02:14:11.648Z,1017.71
2019-02-04T02:15:00.272Z,1017.68
2019-02-04T02:15:49.224Z,1017.66
2019-02-04T02:16:38.188Z,1017.67
2019-02-04T02:17:27.242Z,1017.6
2019-02-04T02:18:17.522Z,1017.61
2019-02-04T02:19:06.600Z,1017.61
2019-02-04T02:19:55.074Z,1017.56
2019-02-04T02:20:44.708Z,1017.59
2019-02-04T02:21:34.932Z,1017.59
2019-02-04T02:22:23.737Z,1017.6
2019-02-04T02:23:12.446Z,1017.6
2019-02-04T02:24:02.792Z,1017.55
2019-02-04T02:24:51.164Z,1017.53
2019-02-04T02:25:42.208Z,1017.51
2019-02-04T02:26:30.472Z,1017.46
2019-02-04T02:27:20.753Z,1017.46
2019-02-04T02:28:09.406Z,1017.42
2019-02-04T02:28:59.320Z,1017.42
2019-02-04T02:29:49.737Z,1017.39
2019-02-04T02:30:38.287Z,1017.37
2019-02-04T02:33:03.843Z,1017.32
2019-02-04T02:33:54.477Z,1017.35
2019-02-04T02:34:48.633Z,1017.4
2019-02-04T02:35:41.720Z,1017.4
2019-02-04T02:36:33.128Z,1017.4
2019-02-04T02:37:35.469Z,1017.43
2019-02-04T02:38:26.137Z,1017.4
2019-02-04T02:39:14.487Z,1017.35
2019-02-04T02:40:09.971Z,1017.38
2019-02-04T02:41:03.479Z,1017.39
2019-02-04T02:41:55.813Z,1017.33
2019-02-04T02:42:47.768Z,1017.35
2019-02-04T02:43:40.317Z,1017.32
2019-02-04T02:44:28.467Z,1017.34
2019-02-04T02:45:21.689Z,1017.33
2019-02-04T02:46:12.794Z,1017.33
2019-02-04T02:48:43.548Z,1017.38
2019-02-04T02:49:35.644Z,1017.41
2019-02-04T02:50:25.615Z,1017.39
2019-02-04T02:51:18.245Z,1017.43
2019-02-04T02:52:12.463Z,1017.43
2019-02-04T02:53:04.004Z,1017.48
2019-02-04T02:55:23.954Z,1017.5
2019-02-04T02:56:16.361Z,1017.51
2019-02-04T02:57:08.208Z,1017.56
2019-02-04T02:58:04.578Z,1017.54
2019-02-04T02:58:56.474Z,1017.51
2019-02-04T02:59:45.790Z,1017.51
2019-02-04T03:00:34.812Z,1017.49
2019-02-04T03:01:26.366Z,1017.51
2019-02-04T03:02:20.044Z,1017.53
2019-02-04T03:03:09.191Z,1017.52
2019-02-04T03:04:02.146Z,1017.53
2019-02-04T03:04:51.372Z,1017.58
2019-02-04T03:05:44.326Z,1017.47
2019-02-04T03:06:28.428Z,1017.52
2019-02-04T03:07:20.693Z,1017.55
2019-02-04T03:09:24.280Z,1017.52
2019-02-04T03:10:14.198Z,1017.54
2019-02-04T03:11:07.320Z,1017.53
2019-02-04T03:11:55.777Z,1017.51
2019-02-04T03:13:56.077Z,1017.47
2019-02-04T03:14:44.302Z,1017.47
2019-02-04T03:15:29.602Z,1017.46
2019-02-04T03:16:28.805Z,1017.49
2019-02-04T03:18:43.901Z,1017.49
2019-02-04T03:20:47.925Z,1017.43
2019-02-04T03:21:39.777Z,1017.45
2019-02-04T03:22:29.494Z,1017.44
2019-02-04T03:23:19.747Z,1017.48
2019-02-04T03:24:12.187Z,1017.5
2019-02-04T03:25:02.726Z,1017.45
2019-02-04T03:27:43.404Z,1017.51
2019-02-04T03:32:00.438Z,1017.5
2019-02-04T03:32:50.434Z,1017.51
2019-02-04T03:33:45.525Z,1017.51
2019-02-04T03:34:37.902Z,1017.54
2019-02-04T03:35:31.549Z,1017.56
2019-02-04T03:36:24.834Z,1017.57
2019-02-04T03:37:18.953Z,1017.55
2019-02-04T03:38:09.506Z,1017.64
2019-02-04T03:40:14.755Z,1017.65
2019-02-04T03:41:04.816Z,1017.64
2019-02-04T03:41:55.401Z,1017.66
2019-02-04T03:42:47.829Z,1017.69
2019-02-04T03:43:40.160Z,1017.72
2019-02-04T03:44:31.090Z,1017.73
2019-02-04T03:45:25.287Z,1017.72
2019-02-04T03:46:15.897Z,1017.7
2019-02-04T03:50:11.422Z,1017.74
2019-02-04T03:51:03.016Z,1017.66
2019-02-04T03:53:42.390Z,1017.72
2019-02-04T03:54:30.415Z,1017.73
2019-02-04T03:55:19.541Z,1017.67
2019-02-04T03:56:08.403Z,1017.71
2019-02-04T03:56:56.397Z,1017.72
2019-02-04T03:57:45.610Z,1017.68
2019-02-04T03:58:38.064Z,1017.63
2019-02-04T03:59:33.234Z,1017.69
2019-02-04T04:00:22.152Z,1017.63
2019-02-04T04:01:15.457Z,1017.6
2019-02-04T04:02:08.757Z,1017.6
2019-02-04T04:03:00.087Z,1017.59
2019-02-04T04:03:50.288Z,1017.6
2019-02-04T04:14:11.041Z,1017.63
2019-02-04T04:15:01.426Z,1017.63
2019-02-04T04:15:49.814Z,1017.63
2019-02-04T04:16:41.754Z,1017.61
2019-02-04T04:17:33.763Z,1017.63
2019-02-04T04:18:25.611Z,1017.64
2019-02-04T04:19:14.769Z,1017.61
2019-02-04T04:20:13.524Z,1017.62
2019-02-04T04:26:51.223Z,1017.57
2019-02-04T04:27:44.883Z,1017.57
2019-02-04T04:28:37.036Z,1017.57
2019-02-04T05:07:27.693Z,1017.38
2019-02-04T05:08:21.152Z,1017.39
2019-02-04T05:09:13.093Z,1017.4
2019-02-04T05:10:07.059Z,1017.32
2019-02-04T05:12:36.156Z,1017.4
2019-02-04T05:13:27.746Z,1017.41
2019-02-04T05:14:18.687Z,1017.42
2019-02-04T05:15:07.660Z,1017.43
2019-02-04T05:17:41.727Z,1017.35
2019-02-04T05:18:37.946Z,1017.5
2019-02-04T05:19:22.312Z,1017.51
2019-02-04T05:20:20.220Z,1017.5
2019-02-04T05:22:39.487Z,1017.55
2019-02-04T05:23:27.932Z,1017.52
2019-02-04T05:24:16.158Z,1017.5
2019-02-04T05:25:05.363Z,1017.52
2019-02-04T05:25:59.202Z,1017.55
2019-02-04T05:26:47.527Z,1017.55
2019-02-04T05:27:27.902Z,1017.57
2019-02-04T05:28:08.302Z,1017.61
2019-02-04T05:28:48.733Z,1017.55
2019-02-04T05:29:29.114Z,1017.61
2019-02-04T05:30:09.655Z,1017.62
2019-02-04T05:30:50.090Z,1017.62
2019-02-04T05:31:30.604Z,1017.62
2019-02-04T05:32:11.085Z,1017.66
2019-02-04T05:32:51.695Z,1017.68
2019-02-04T05:33:32.219Z,1017.68
2019-02-04T05:34:12.525Z,1017.71
2019-02-04T05:34:52.897Z,1017.7
2019-02-04T05:35:33.278Z,1017.7
2019-02-04T05:36:13.686Z,1017.76
2019-02-04T05:36:54.161Z,1017.78
2019-02-04T05:37:34.566Z,1017.76
2019-02-04T05:38:15.021Z,1017.75
2019-02-04T05:38:55.387Z,1017.8
2019-02-04T05:39:35.867Z,1017.81
2019-02-04T05:40:16.275Z,1017.77
2019-02-04T05:40:56.821Z,1017.77
2019-02-04T05:41:37.766Z,1017.82
2019-02-04T05:42:18.160Z,1017.81
2019-02-04T05:42:58.753Z,1017.81
2019-02-04T05:43:39.280Z,1017.83
2019-02-04T05:44:19.719Z,1017.83
2019-02-04T05:45:00.157Z,1017.83
2019-02-04T05:45:40.537Z,1017.8
2019-02-04T05:46:21.105Z,1017.82
2019-02-04T05:47:01.325Z,1017.82
2019-02-04T05:47:41.706Z,1017.85
2019-02-04T05:48:22.181Z,1017.89
2019-02-04T05:49:02.518Z,1017.84
2019-02-04T05:49:42.929Z,1017.86
2019-02-04T05:50:23.443Z,1017.88
2019-02-04T05:51:03.956Z,1017.88
2019-02-04T05:51:44.205Z,1017.9
2019-02-04T05:52:24.570Z,1017.86
2019-02-04T05:53:05.035Z,1017.85
2019-02-04T05:53:46.771Z,1017.84
2019-02-04T05:54:28.036Z,1017.81
2019-02-04T05:55:08.815Z,1017.8
2019-02-04T05:55:49.217Z,1017.83
2019-02-04T05:56:29.628Z,1017.78
2019-02-04T05:57:10.095Z,1017.79
2019-02-04T05:57:50.553Z,1017.78
2019-02-04T05:58:33.017Z,1017.77
2019-02-04T06:01:45.841Z,1017.78
2019-02-04T06:02:39.938Z,1017.76
2019-02-04T06:03:32.560Z,1017.75
2019-02-04T06:04:25.863Z,1017.71
2019-02-04T06:05:19.289Z,1017.74
2019-02-04T06:06:13.115Z,1017.74
2019-02-04T06:08:57.094Z,1017.8
2019-02-04T06:09:40.581Z,1017.77
2019-02-04T06:10:25.117Z,1017.84
2019-02-04T06:11:08.368Z,1017.73
2019-02-04T06:11:50.659Z,1017.79
2019-02-04T06:12:31.941Z,1017.76
2019-02-04T06:13:20.756Z,1017.78
2019-02-04T06:14:00.769Z,1017.75
2019-02-04T06:14:41.570Z,1017.8
2019-02-04T06:15:22.294Z,1017.81
2019-02-04T06:16:04.051Z,1017.79
2019-02-04T06:16:44.688Z,1017.75
2019-02-04T06:17:25.475Z,1017.78
2019-02-04T06:18:07.586Z,1017.78
2019-02-04T06:26:30.269Z,1017.8
2019-02-04T06:27:22.936Z,1017.81
2019-02-04T06:28:33.195Z,1017.77
2019-02-04T06:35:24.929Z,1017.76
2019-02-04T06:36:15.319Z,1017.83
2019-02-04T06:42:48.645Z,1017.73
2019-02-04T06:43:39.621Z,1017.73
2019-02-04T06:44:36.977Z,1017.73
2019-02-04T06:45:20.922Z,1017.71
2019-02-04T06:46:02.277Z,1017.76
2019-02-04T06:46:43.135Z,1017.71
2019-02-04T06:47:23.723Z,1017.7
2019-02-04T06:48:06.487Z,1017.72
2019-02-04T06:48:46.879Z,1017.71
2019-02-04T06:49:28.697Z,1017.73
2019-02-04T06:50:10.032Z,1017.7
2019-02-04T06:50:51.067Z,1017.66
2019-02-04T06:51:31.238Z,1017.71
2019-02-04T06:52:13.565Z,1017.68
2019-02-04T06:52:53.448Z,1017.7
2019-02-04T06:53:33.911Z,1017.68
2019-02-04T06:54:15.293Z,1017.71
2019-02-04T06:54:56.867Z,1017.71
2019-02-04T06:55:37.568Z,1017.66
2019-02-04T06:56:19.608Z,1017.67
2019-02-04T06:57:01.385Z,1017.64
2019-02-04T06:57:41.798Z,1017.65
2019-02-04T06:58:22.932Z,1017.63
2019-02-04T06:59:03.402Z,1017.64
2019-02-04T06:59:45.102Z,1017.61
2019-02-04T07:02:14.369Z,1017.63
2019-02-04T07:03:07.319Z,1017.69
2019-02-04T07:03:59.565Z,1017.66
2019-02-04T07:04:53.567Z,1017.63
2019-02-04T07:05:47.433Z,1017.66
2019-02-04T07:06:43.592Z,1017.7
2019-02-04T07:07:36.231Z,1017.63
2019-02-04T07:08:33.067Z,1017.64
2019-02-04T07:09:35.719Z,1017.67
2019-02-04T07:12:05.425Z,1017.62
2019-02-04T07:12:58.906Z,1017.61
2019-02-04T07:13:52.569Z,1017.63
2019-02-04T07:14:46.872Z,1017.61
2019-02-04T07:15:40.937Z,1017.61
2019-02-04T07:16:36.778Z,1017.65
2019-02-04T07:17:29.014Z,1017.64
2019-02-04T07:18:23.947Z,1017.6
2019-02-04T07:19:24.051Z,1017.58
2019-02-04T07:20:18.129Z,1017.61
2019-02-04T07:23:23.743Z,1017.6
2019-02-04T07:24:17.822Z,1017.56
2019-02-04T07:25:14.501Z,1017.58
2019-02-04T07:26:11.341Z,1017.6
2019-02-04T07:27:11.761Z,1017.56
2019-02-04T07:28:06.706Z,1017.57
2019-02-04T07:29:03.874Z,1017.63
2019-02-04T07:30:07.811Z,1017.62
2019-02-04T07:32:21.220Z,1017.63
2019-02-04T07:33:19.356Z,1017.67
2019-02-04T07:34:13.757Z,1017.67
2019-02-04T07:35:14.965Z,1017.65
2019-02-04T07:36:13.822Z,1017.69
2019-02-04T07:37:21.882Z,1017.63
2019-02-04T07:38:24.618Z,1017.67
2019-02-04T07:39:26.668Z,1017.68
2019-02-04T07:40:33.060Z,1017.67
2019-02-04T07:41:45.962Z,1017.73
2019-02-04T07:42:43.457Z,1017.76
2019-02-04T07:43:44.136Z,1017.77
2019-02-04T07:44:45.371Z,1017.77
2019-02-04T07:45:51.166Z,1017.75
2019-02-04T07:46:52.891Z,1017.77
2019-02-04T07:47:54.141Z,1017.74
2019-02-04T07:48:57.041Z,1017.73
2019-02-04T07:50:13.222Z,1017.76
2019-02-04T07:51:14.132Z,1017.79
2019-02-04T07:52:17.174Z,1017.72
2019-02-04T07:53:20.121Z,1017.79
2019-02-04T07:56:12.561Z,1017.77
2019-02-04T07:57:06.598Z,1017.74
2019-02-04T07:58:01.251Z,1017.8
2019-02-04T07:58:55.380Z,1017.81
2019-02-04T07:59:51.472Z,1017.85
2019-02-04T08:00:45.642Z,1017.85
2019-02-04T08:01:39.109Z,1017.85
2019-02-04T08:02:34.630Z,1017.85
2019-02-04T08:03:36.124Z,1017.86
2019-02-04T08:04:31.044Z,1017.88
2019-02-04T08:05:33.441Z,1017.87
2019-02-04T08:06:30.988Z,1017.88
2019-02-04T08:07:26.197Z,1017.84
2019-02-04T08:08:21.939Z,1017.85
2019-02-04T08:09:20.340Z,1017.83
2019-02-04T08:10:16.815Z,1017.79
2019-02-04T08:11:10.239Z,1017.81
2019-02-04T08:12:04.745Z,1017.85
2019-02-04T08:13:02.911Z,1017.84
2019-02-04T08:13:57.665Z,1017.82
2019-02-04T08:14:53.943Z,1017.81
2019-02-04T08:15:50.369Z,1017.75
2019-02-04T08:16:50.955Z,1017.71
2019-02-04T08:17:49.115Z,1017.71
2019-02-04T08:18:49.735Z,1017.76
2019-02-04T08:19:46.962Z,1017.64
2019-02-04T08:20:39.548Z,1017.69
2019-02-04T08:21:33.548Z,1017.62
2019-02-04T08:23:42.193Z,1017.6
2019-02-04T08:24:38.869Z,1017.59
2019-02-04T08:25:34.380Z,1017.5
2019-02-04T08:26:26.814Z,1017.51
2019-02-04T08:27:20.230Z,1017.52
2019-02-04T08:28:18.332Z,1017.46
2019-02-04T08:29:19.798Z,1017.52
2019-02-04T08:32:31.829Z,1017.46
2019-02-04T08:33:30.831Z,1017.42
2019-02-04T08:34:32.091Z,1017.42
2019-02-04T08:35:41.936Z,1017.43
2019-02-04T08:36:51.303Z,1017.45
2019-02-04T08:40:52.540Z,1017.48
2019-02-04T08:41:49.016Z,1017.49
2019-02-04T08:42:46.496Z,1017.47
2019-02-04T08:43:42.269Z,1017.45
2019-02-04T08:47:25.224Z,1017.44
2019-02-04T08:48:45.568Z,1017.45
2019-02-04T08:49:57.900Z,1017.47
2019-02-04T08:50:49.340Z,1017.43
2019-02-04T08:51:45.413Z,1017.42
2019-02-04T08:53:00.454Z,1017.37
2019-02-04T09:00:13.595Z,1017.46
2019-02-04T09:01:10.505Z,1017.4
2019-02-04T09:02:09.413Z,1017.41
2019-02-04T09:03:06.857Z,1017.38
2019-02-04T09:04:03.483Z,1017.35
2019-02-04T09:05:01.658Z,1017.38
2019-02-04T09:05:57.612Z,1017.35
2019-02-04T09:06:54.376Z,1017.37
2019-02-04T09:07:51.781Z,1017.33
2019-02-04T09:08:53.514Z,1017.4
2019-02-04T09:09:53.875Z,1017.35
2019-02-04T09:10:55.291Z,1017.38
2019-02-04T09:11:54.503Z,1017.37
2019-02-04T09:12:53.058Z,1017.37
2019-02-04T09:13:50.542Z,1017.37
2019-02-04T09:14:51.389Z,1017.4
2019-02-04T09:15:54.107Z,1017.3
2019-02-04T09:17:04.454Z,1017.37
2019-02-04T09:18:05.713Z,1017.34
2019-02-04T09:19:03.746Z,1017.31
2019-02-04T09:20:09.871Z,1017.3
2019-02-04T09:21:05.591Z,1017.05
2019-02-04T09:22:13.336Z,1017.3
2019-02-04T09:23:16.039Z,1017.29
2019-02-04T09:24:22.296Z,1017.37
2019-02-04T09:26:57.605Z,1017.34
2019-02-04T09:27:59.371Z,1017.33
2019-02-04T09:28:53.832Z,1017.26
2019-02-04T09:29:51.005Z,1017.25
2019-02-04T09:30:49.751Z,1017.27
2019-02-04T09:31:47.973Z,1017.24
2019-02-04T09:32:44.294Z,1017.25
2019-02-04T09:33:41.671Z,1017.2
2019-02-04T09:34:40.129Z,1017.2
2019-02-04T09:35:36.455Z,1017.17
2019-02-04T09:36:35.844Z,1017.15
2019-02-04T09:37:37.937Z,1017.14
2019-02-04T09:38:35.198Z,1017.16
2019-02-04T09:39:33.303Z,1017.08
2019-02-04T09:40:31.559Z,1017.11
2019-02-04T09:41:33.417Z,1017.07
2019-02-04T09:42:34.084Z,1017
2019-02-04T09:48:40.709Z,1016.94
2019-02-04T09:49:35.868Z,1016.95
2019-02-04T09:50:33.887Z,1016.97
2019-02-04T09:51:39.378Z,1016.95
2019-02-04T09:52:35.443Z,1016.91
2019-02-04T09:53:32.826Z,1016.92
2019-02-04T09:54:35.220Z,1017.02
2019-02-04T09:55:35.068Z,1016.98
2019-02-04T09:56:29.622Z,1017
2019-02-04T09:57:32.574Z,1016.95
2019-02-04T09:58:32.804Z,1016.91
2019-02-04T09:59:31.721Z,1016.9
2019-02-04T10:00:31.037Z,1016.86
2019-02-04T10:01:34.168Z,1016.9
2019-02-04T10:02:33.274Z,1016.96
2019-02-04T10:03:30.783Z,1016.94
2019-02-04T10:04:43.437Z,1016.59
2019-02-04T10:05:41.232Z,1016.94
2019-02-04T10:06:40.949Z,1016.94
2019-02-04T10:07:36.735Z,1016.97
2019-02-04T10:08:34.155Z,1016.99
2019-02-04T10:09:32.994Z,1016.97
2019-02-04T10:10:36.054Z,1016.95
2019-02-04T10:11:34.010Z,1016.95
2019-02-04T10:12:33.096Z,1016.97
2019-02-04T10:15:13.143Z,1016.92
2019-02-04T10:16:11.166Z,1016.91
2019-02-04T10:17:15.675Z,1016.95
2019-02-04T10:18:11.582Z,1016.8
2019-02-04T10:19:13.018Z,1016.87
2019-02-04T10:20:18.832Z,1016.87
2019-02-04T10:21:26.317Z,1016.85
2019-02-04T10:22:29.459Z,1016.94
2019-02-04T10:23:28.344Z,1016.92
2019-02-04T10:24:28.918Z,1016.92
2019-02-04T10:25:27.422Z,1016.96
2019-02-04T11:07:08.981Z,1016.68
2019-02-04T11:10:23.879Z,1016.62
2019-02-04T11:11:17.633Z,1016.67
2019-02-04T11:12:11.192Z,1016.68
2019-02-04T11:13:03.899Z,1016.64
2019-02-04T11:13:59.309Z,1016.64
2019-02-04T11:14:54.377Z,1016.63
2019-02-04T11:15:53.356Z,1016.58
2019-02-04T11:16:56.687Z,1016.64
2019-02-04T11:17:55.645Z,1016.63
2019-02-04T11:18:52.768Z,1016.61
2019-02-04T11:19:55.275Z,1016.61
2019-02-04T11:22:28.664Z,1016.65
2019-02-04T11:26:06.069Z,1016.59
2019-02-04T11:26:48.417Z,1016.65
2019-02-04T11:27:29.261Z,1016.66
2019-02-04T11:28:09.992Z,1016.63
2019-02-04T11:28:50.259Z,1016.57
2019-02-04T11:29:31.338Z,1016.75
2019-02-04T11:30:13.928Z,1016.64
2019-02-04T11:30:54.246Z,1016.59
2019-02-04T11:31:34.971Z,1016.59
2019-02-04T11:32:16.003Z,1016.59
2019-02-04T11:32:58.003Z,1016.56
2019-02-04T11:33:38.495Z,1016.58
2019-02-04T11:34:19.819Z,1016.66
2019-02-04T11:35:00.262Z,1016.6
2019-02-04T11:35:41.616Z,1016.67
2019-02-04T11:36:21.950Z,1016.63
2019-02-04T11:37:02.643Z,1016.57
2019-02-04T11:37:45.395Z,1016.59
2019-02-04T11:38:28.013Z,1016.61
2019-02-04T11:39:09.593Z,1016.63
2019-02-04T11:39:50.125Z,1016.66
2019-02-04T11:40:31.930Z,1016.58
2019-02-04T11:41:13.029Z,1016.59
2019-02-04T11:41:53.324Z,1016.72
2019-02-04T11:42:34.200Z,1016.6
2019-02-04T11:43:15.101Z,1016.61
2019-02-04T11:43:56.127Z,1016.62
2019-02-04T11:44:38.321Z,1016.55
2019-02-04T11:45:18.959Z,1016.55
2019-02-04T11:45:59.702Z,1016.53
2019-02-04T11:46:40.682Z,1016.59
2019-02-04T11:47:25.037Z,1016.57
2019-02-04T11:48:07.886Z,1016.58
2019-02-04T11:48:49.671Z,1016.6
2019-02-04T11:49:30.287Z,1016.57
2019-02-04T11:50:10.599Z,1016.57
2019-02-04T11:50:51.269Z,1016.6
2019-02-04T11:51:32.815Z,1016.64
2019-02-04T11:52:13.870Z,1016.55
2019-02-04T11:52:56.009Z,1016.58
2019-02-04T11:53:36.390Z,1016.61
2019-02-04T11:54:20.040Z,1016.53
2019-02-04T11:55:00.565Z,1016.49
2019-02-04T11:55:41.069Z,1016.54
2019-02-04T11:56:22.287Z,1016.47
2019-02-04T11:57:02.720Z,1016.53
2019-02-04T11:57:45.567Z,1016.51
2019-02-04T11:58:26.031Z,1016.48
2019-02-04T11:59:06.462Z,1016.5
2019-02-04T11:59:47.301Z,1016.48
2019-02-04T12:02:06.120Z,1016.5
2019-02-04T12:06:37.415Z,1016.44
2019-02-04T12:10:20.337Z,1016.43
2019-02-04T12:30:19.053Z,1016.36
2019-02-04T12:32:33.404Z,1016.35
2019-02-04T12:33:15.658Z,1016.31
2019-02-04T12:34:19.596Z,1016.27
2019-02-04T12:35:03.740Z,1016.26
2019-02-04T12:35:46.017Z,1016.33
2019-02-04T12:36:35.861Z,1016.35
2019-02-04T12:37:19.223Z,1016.37
2019-02-04T12:38:01.727Z,1016.33
2019-02-04T12:38:44.639Z,1016.23
2019-02-04T12:39:30.261Z,1016.35
2019-02-04T12:40:10.836Z,1016.28
2019-02-04T12:40:55.645Z,1016.32
2019-02-04T12:41:37.436Z,1016.35
2019-02-04T12:42:20.243Z,1016.34
2019-02-04T12:43:04.902Z,1016.35
2019-02-04T12:43:50.182Z,1016.16
2019-02-04T12:44:31.020Z,1016.3
2019-02-04T12:50:52.624Z,1016.28
2019-02-04T12:51:42.543Z,1016.27
2019-02-04T12:52:24.644Z,1016.26
2019-02-04T12:53:06.127Z,1016.25
2019-02-04T12:53:48.598Z,1016.16
2019-02-04T12:54:32.308Z,1016.23
2019-02-04T12:55:13.647Z,1016.22
2019-02-04T12:55:56.312Z,1016.27
2019-02-04T12:56:37.549Z,1016.27
2019-02-04T12:57:19.850Z,1016.28
2019-02-04T12:58:00.308Z,1016.21
2019-02-04T12:58:42.519Z,1016.28
2019-02-04T13:07:26.522Z,1016.24
2019-02-04T13:08:30.019Z,1016.14
2019-02-04T13:09:37.322Z,1016.21
2019-02-04T13:15:47.877Z,1016.04
2019-02-04T13:17:40.616Z,1016.18
2019-02-04T13:18:34.207Z,1016.13
2019-02-04T13:19:32.145Z,1016.15
2019-02-04T13:20:30.418Z,1016.13
2019-02-04T13:21:24.284Z,1016.13
2019-02-04T13:22:21.239Z,1016.14
2019-02-04T13:23:19.136Z,1016.11
2019-02-04T13:24:13.786Z,1016.15
2019-02-04T13:25:28.290Z,1016.22
2019-02-04T13:26:21.412Z,1016.17
2019-02-04T13:27:17.237Z,1016.18
2019-02-04T13:28:12.455Z,1016.18
2019-02-04T13:29:21.072Z,1016.16
2019-02-04T13:30:18.643Z,1016.15
2019-02-04T13:31:16.571Z,1016.13
2019-02-04T13:32:12.459Z,1016.09
2019-02-04T13:33:05.594Z,1016.12
2019-02-04T13:34:00.923Z,1016.12
2019-02-04T13:34:54.804Z,1016.09
2019-02-04T13:35:48.200Z,1016.01
2019-02-04T13:36:49.246Z,1016.05
2019-02-04T13:37:44.971Z,1016.03
2019-02-04T13:38:45.214Z,1016.04
2019-02-04T13:39:41.337Z,1015.98
2019-02-04T13:40:36.341Z,1016
2019-02-04T13:41:34.269Z,1016.01
2019-02-04T13:42:31.974Z,1016.02
2019-02-04T13:43:28.420Z,1016.02
2019-02-04T13:44:26.785Z,1016.03
2019-02-04T13:45:28.758Z,1016.03
2019-02-04T13:46:23.726Z,1015.99
2019-02-04T13:47:19.387Z,1015.99
2019-02-04T13:48:16.460Z,1015.98
2019-02-04T13:49:21.114Z,1015.92
2019-02-04T13:50:15.251Z,1015.96
2019-02-04T13:51:12.449Z,1015.92
2019-02-04T13:52:08.744Z,1015.87
2019-02-04T13:53:03.095Z,1015.96
2019-02-04T13:54:00.918Z,1015.89
2019-02-04T13:54:59.247Z,1015.88
2019-02-04T13:55:52.522Z,1015.85
2019-02-04T13:56:48.123Z,1015.84
2019-02-04T13:57:45.487Z,1015.8
2019-02-04T13:58:43.144Z,1015.8
2019-02-04T13:59:43.765Z,1015.75
2019-02-04T14:00:48.529Z,1015.83
2019-02-04T14:01:44.813Z,1015.81
2019-02-04T14:02:38.057Z,1015.82
2019-02-04T14:03:35.199Z,1015.82
2019-02-04T14:04:34.155Z,1015.81
2019-02-04T14:05:33.979Z,1015.79
2019-02-04T14:06:28.933Z,1015.8
2019-02-04T14:07:30.718Z,1015.8
2019-02-04T14:08:29.478Z,1015.76
2019-02-04T14:09:24.503Z,1015.79
2019-02-04T14:10:27.437Z,1015.76
2019-02-04T14:11:26.247Z,1015.71
2019-02-04T14:12:21.737Z,1015.73
2019-02-04T14:13:20.455Z,1015.74
2019-02-04T14:20:41.808Z,1015.73
2019-02-04T14:21:33.723Z,1015.7
2019-02-04T14:22:29.641Z,1015.69
2019-02-04T14:23:27.309Z,1015.7
2019-02-04T14:24:18.629Z,1015.67
2019-02-04T14:25:20.708Z,1015.63
2019-02-04T14:26:16.101Z,1015.63
2019-02-04T14:27:16.857Z,1015.59
2019-02-04T14:28:21.013Z,1015.61
2019-02-04T14:29:25.599Z,1015.59
2019-02-04T14:34:07.870Z,1015.57
2019-02-04T14:35:01.955Z,1015.56
2019-02-04T14:40:50.892Z,1015.54
2019-02-04T14:41:31.178Z,1015.54
2019-02-04T14:42:12.785Z,1015.56
2019-02-04T14:42:55.221Z,1015.58
2019-02-04T14:43:35.580Z,1015.53
2019-02-04T14:46:23.263Z,1015.54
2019-02-04T14:47:08.763Z,1015.59
2019-02-04T14:49:29.648Z,1015.49
2019-02-04T14:50:27.385Z,1015.52
2019-02-04T14:51:15.647Z,1015.53
2019-02-04T14:52:00.591Z,1015.52
2019-02-04T14:52:42.941Z,1015.5
2019-02-04T14:53:23.130Z,1015.49
2019-02-04T14:54:06.136Z,1015.5
2019-02-04T14:55:05.788Z,1015.44
2019-02-04T14:55:46.279Z,1015.5
2019-02-04T14:56:27.083Z,1015.49
2019-02-04T14:57:16.454Z,1015.48
2019-02-04T14:57:58.483Z,1015.47
2019-02-04T14:58:39.125Z,1015.47
2019-02-04T14:59:26.385Z,1015.5
2019-02-04T15:00:08.440Z,1015.47
2019-02-04T15:00:55.152Z,1015.52
2019-02-04T15:01:35.434Z,1015.5
2019-02-04T15:02:17.229Z,1015.5
2019-02-04T15:02:59.655Z,1015.54
2019-02-04T15:03:40.814Z,1015.6
2019-02-04T15:04:24.362Z,1015.53
2019-02-04T15:05:21.843Z,1015.51
2019-02-04T15:08:02.732Z,1015.54
2019-02-04T15:09:13.685Z,1015.51